createdAt,value
2022-12-23T00:01:06.467Z,18.00
2022-12-23T00:03:33.719Z,15.68
2022-12-23T00:06:00.859Z,16.50
2022-12-23T00:08:27.977Z,16.23
2022-12-23T00:10:56.554Z,14.43
2022-12-23T00:13:41.765Z,15.50
2022-12-23T00:16:10.615Z,11.55
2022-12-23T00:18:37.785Z,12.77
2022-12-23T00:21:08.979Z,14.70
2022-12-23T00:23:37.882Z,11.80
2022-12-23T00:26:05.166Z,13.52
2022-12-23T00:28:32.163Z,13.10
2022-12-23T00:31:04.400Z,11.27
2022-12-23T00:33:34.198Z,10.25
2022-12-23T00:36:01.282Z,10.85
2022-12-23T00:38:46.809Z,10.13
2022-12-23T00:43:59.748Z,9.48
2022-12-23T00:46:26.437Z,11.57
2022-12-23T00:49:11.705Z,10.10
2022-12-23T00:51:38.293Z,9.50
2022-12-23T00:54:05.448Z,9.20
2022-12-23T00:56:32.137Z,9.20
2022-12-23T00:58:59.632Z,11.05
2022-12-23T01:01:45.110Z,9.52
2022-12-23T01:04:32.364Z,9.63
2022-12-23T01:06:58.991Z,10.20
2022-12-23T01:09:26.074Z,10.00
2022-12-23T01:11:52.635Z,9.98
2022-12-23T01:14:19.390Z,8.57
2022-12-23T01:16:46.176Z,9.35
2022-12-23T01:19:13.211Z,8.27
2022-12-23T01:21:39.874Z,9.07
2022-12-23T01:24:07.034Z,8.52
2022-12-23T01:26:33.705Z,8.23
2022-12-23T01:29:00.391Z,8.95
2022-12-23T01:31:27.619Z,8.98
2022-12-23T01:33:54.498Z,8.25
2022-12-23T01:36:22.094Z,8.38
2022-12-23T01:38:48.723Z,8.07
2022-12-23T01:41:52.508Z,9.48
2022-12-23T01:44:56.639Z,7.82
2022-12-23T01:47:32.366Z,8.85
2022-12-23T01:50:01.714Z,8.75
2022-12-23T01:52:29.001Z,7.35
2022-12-23T01:54:55.952Z,7.53
2022-12-23T01:57:22.819Z,8.00
2022-12-23T02:00:08.596Z,8.65
2022-12-23T02:02:55.353Z,7.72
2022-12-23T02:05:23.562Z,6.93
2022-12-23T02:08:10.241Z,7.55
2022-12-23T02:10:45.819Z,7.10
2022-12-23T02:13:19.713Z,8.65
2022-12-23T02:16:15.612Z,7.47
2022-12-23T02:18:50.296Z,7.10
2022-12-23T02:21:31.247Z,7.20
2022-12-23T02:24:30.801Z,7.60
2022-12-23T02:27:05.440Z,6.30
2022-12-23T02:29:50.959Z,7.05
2022-12-23T02:32:29.564Z,8.13
2022-12-23T02:34:59.996Z,7.03
2022-12-23T02:37:44.561Z,7.00
2022-12-23T02:40:29.612Z,6.30
2022-12-23T02:43:02.352Z,6.88
2022-12-23T02:45:49.227Z,7.75
2022-12-23T02:48:18.915Z,7.47
2022-12-23T02:50:47.149Z,7.55
2022-12-23T02:53:29.602Z,7.18
2022-12-23T02:55:56.760Z,6.40
2022-12-23T02:58:28.441Z,7.13
2022-12-23T03:00:55.695Z,6.93
2022-12-23T03:03:22.533Z,6.45
2022-12-23T03:05:50.065Z,6.88
2022-12-23T03:08:20.978Z,6.85
2022-12-23T03:11:01.276Z,6.85
2022-12-23T03:13:49.115Z,7.22
2022-12-23T03:16:21.134Z,7.35
2022-12-23T03:18:56.710Z,6.45
2022-12-23T03:21:35.399Z,8.00
2022-12-23T03:24:46.951Z,7.28
2022-12-23T03:27:22.667Z,6.80
2022-12-23T03:29:57.587Z,6.65
2022-12-23T03:32:26.240Z,7.22
2022-12-23T03:34:56.145Z,8.27
2022-12-23T03:37:25.602Z,6.25
2022-12-23T03:40:01.612Z,7.15
2022-12-23T03:42:39.523Z,6.90
2022-12-23T03:45:38.195Z,6.53
2022-12-23T03:48:09.672Z,6.20
2022-12-23T03:50:37.555Z,6.80
2022-12-23T03:53:08.774Z,6.97
2022-12-23T03:55:45.721Z,6.78
2022-12-23T03:58:14.595Z,6.22
2022-12-23T04:00:50.217Z,7.68
2022-12-23T04:03:32.677Z,7.03
2022-12-23T04:06:00.116Z,8.60
2022-12-23T04:08:30.483Z,6.25
2022-12-23T04:10:57.887Z,7.20
2022-12-23T04:13:26.630Z,8.05
2022-12-23T04:15:53.485Z,6.15
2022-12-23T04:18:20.084Z,6.13
2022-12-23T04:20:46.615Z,5.80
2022-12-23T04:23:13.145Z,6.38
2022-12-23T04:25:39.709Z,6.35
2022-12-23T04:28:06.315Z,6.20
2022-12-23T04:30:34.584Z,6.90
2022-12-23T04:33:02.303Z,7.72
2022-12-23T04:35:29.326Z,7.65
2022-12-23T04:37:55.888Z,7.82
2022-12-23T04:40:22.451Z,7.68
2022-12-23T04:42:49.049Z,7.10
2022-12-23T04:45:15.696Z,7.03
2022-12-23T04:47:42.398Z,6.70
2022-12-23T04:50:13.822Z,6.82
2022-12-23T04:52:40.573Z,6.80
2022-12-23T04:55:07.761Z,7.22
2022-12-23T04:57:34.457Z,6.75
2022-12-23T05:00:01.036Z,7.65
2022-12-23T05:02:27.629Z,8.43
2022-12-23T05:04:54.228Z,7.97
2022-12-23T05:07:20.887Z,7.43
2022-12-23T05:09:47.425Z,6.20
2022-12-23T05:12:13.991Z,6.18
2022-12-23T05:14:40.549Z,7.05
2022-12-23T05:17:08.072Z,6.20
2022-12-23T05:19:34.890Z,6.35
2022-12-23T05:22:01.471Z,6.65
2022-12-23T05:24:28.239Z,6.18
2022-12-23T05:26:59.661Z,7.80
2022-12-23T05:29:27.382Z,8.13
2022-12-23T05:31:54.090Z,6.38
2022-12-23T05:34:20.905Z,5.60
2022-12-23T05:36:47.564Z,5.72
2022-12-23T05:39:14.242Z,5.82
2022-12-23T05:41:40.932Z,9.82
2022-12-23T05:44:07.464Z,8.10
2022-12-23T05:46:34.384Z,6.68
2022-12-23T05:49:00.928Z,6.47
2022-12-23T05:51:27.523Z,5.88
2022-12-23T05:53:54.126Z,7.43
2022-12-23T05:56:20.744Z,8.45
2022-12-23T05:58:47.331Z,9.05
2022-12-23T06:01:14.232Z,8.10
2022-12-23T06:03:40.926Z,8.25
2022-12-23T06:06:07.643Z,8.35
2022-12-23T06:08:34.234Z,7.80
2022-12-23T06:11:00.838Z,9.07
2022-12-23T06:13:27.398Z,8.75
2022-12-23T06:15:54.045Z,9.25
2022-12-23T06:18:20.602Z,10.18
2022-12-23T06:20:47.753Z,8.65
2022-12-23T06:23:14.448Z,8.20
2022-12-23T06:25:41.014Z,7.95
2022-12-23T06:28:08.016Z,7.32
2022-12-23T06:30:35.027Z,7.63
2022-12-23T06:33:02.069Z,8.38
2022-12-23T06:35:28.842Z,8.18
2022-12-23T06:37:55.482Z,7.93
2022-12-23T06:40:22.114Z,7.40
2022-12-23T06:42:48.747Z,8.52
2022-12-23T06:45:15.475Z,10.63
2022-12-23T06:47:42.133Z,7.65
2022-12-23T06:50:09.374Z,7.82
2022-12-23T06:52:35.885Z,7.20
2022-12-23T06:55:02.413Z,10.48
2022-12-23T06:57:28.972Z,9.85
2022-12-23T06:59:55.755Z,8.73
2022-12-23T07:02:22.424Z,8.82
2022-12-23T07:04:49.090Z,12.52
2022-12-23T07:07:15.681Z,14.18
2022-12-23T07:09:42.274Z,11.88
2022-12-23T07:12:09.000Z,11.48
2022-12-23T07:14:35.560Z,12.82
2022-12-23T07:17:02.134Z,9.98
2022-12-23T07:19:28.759Z,10.35
2022-12-23T07:21:55.313Z,9.35
2022-12-23T07:24:21.943Z,8.07
2022-12-23T07:26:48.533Z,7.95
2022-12-23T07:29:15.118Z,8.43
2022-12-23T07:31:42.222Z,8.35
2022-12-23T07:34:09.470Z,8.30
2022-12-23T07:36:36.053Z,8.10
2022-12-23T07:39:02.674Z,7.07
2022-12-23T07:41:29.405Z,8.07
2022-12-23T07:44:01.124Z,8.07
2022-12-23T07:46:27.674Z,7.43
2022-12-23T07:48:54.412Z,7.55
2022-12-23T07:51:21.035Z,7.00
2022-12-23T07:53:50.889Z,7.32
2022-12-23T07:56:18.366Z,7.40
2022-12-23T07:58:49.349Z,7.28
2022-12-23T08:01:16.247Z,6.75
2022-12-23T08:03:43.037Z,6.93
2022-12-23T08:06:14.444Z,7.40
2022-12-23T08:08:43.224Z,7.70
2022-12-23T08:11:11.703Z,6.90
2022-12-23T08:13:39.993Z,6.68
2022-12-23T08:16:07.468Z,6.47
2022-12-23T08:18:36.174Z,9.75
2022-12-23T08:21:08.729Z,7.50
2022-12-23T08:23:35.476Z,6.97
2022-12-23T08:26:13.588Z,7.45
2022-12-23T08:28:41.720Z,8.38
2022-12-23T08:31:08.518Z,11.65
2022-12-23T08:33:36.735Z,10.23
2022-12-23T08:36:04.005Z,10.60
2022-12-23T08:38:30.871Z,15.20
2022-12-23T08:40:57.685Z,12.32
2022-12-23T08:43:27.623Z,10.32
2022-12-23T08:45:56.912Z,11.55
2022-12-23T08:48:23.514Z,10.35
2022-12-23T08:50:50.274Z,11.05
2022-12-23T08:53:16.877Z,9.80
2022-12-23T08:55:45.838Z,10.30
2022-12-23T08:58:14.503Z,9.02
2022-12-23T09:00:41.778Z,9.15
2022-12-23T09:03:08.561Z,9.68
2022-12-23T09:05:39.831Z,8.60
2022-12-23T09:08:06.799Z,8.23
2022-12-23T09:10:34.051Z,9.60
2022-12-23T09:13:00.609Z,8.80
2022-12-23T09:15:27.200Z,8.73
2022-12-23T09:17:53.961Z,11.13
2022-12-23T09:20:20.697Z,8.48
2022-12-23T09:22:47.333Z,9.20
2022-12-23T09:25:14.920Z,9.13
2022-12-23T09:27:42.503Z,9.07
2022-12-23T09:30:10.268Z,8.57
2022-12-23T09:32:36.856Z,7.97
2022-12-23T09:35:03.547Z,9.35
2022-12-23T09:37:30.127Z,9.30
2022-12-23T09:39:56.744Z,8.05
2022-12-23T09:42:25.621Z,8.02
2022-12-23T09:45:00.542Z,8.15
2022-12-23T09:49:57.184Z,7.85
2022-12-23T09:52:39.420Z,8.15
2022-12-23T09:55:09.492Z,9.32
2022-12-23T09:57:42.316Z,8.40
2022-12-23T10:00:15.223Z,8.68
2022-12-23T10:03:03.591Z,7.88
2022-12-23T10:05:39.840Z,8.18
2022-12-23T10:08:24.601Z,9.82
2022-12-23T10:10:54.621Z,8.82
2022-12-23T10:13:26.215Z,8.38
2022-12-23T10:15:54.003Z,10.30
2022-12-23T10:18:39.995Z,8.68
2022-12-23T10:21:34.427Z,9.27
2022-12-23T10:24:12.471Z,8.90
2022-12-23T10:26:49.062Z,9.32
2022-12-23T10:29:22.294Z,8.23
2022-12-23T10:32:13.632Z,8.68
2022-12-23T10:35:02.684Z,8.23
2022-12-23T10:37:52.059Z,8.52
2022-12-23T10:40:25.824Z,8.43
2022-12-23T10:43:01.509Z,8.52
2022-12-23T10:46:21.948Z,7.93
2022-12-23T10:49:00.310Z,8.93
2022-12-23T10:51:47.512Z,9.93
2022-12-23T10:54:27.410Z,8.88
2022-12-23T10:56:54.648Z,7.63
2022-12-23T10:59:32.725Z,8.55
2022-12-23T11:02:06.297Z,7.93
2022-12-23T11:04:36.236Z,8.25
2022-12-23T11:07:42.098Z,8.43
2022-12-23T11:10:04.594Z,8.27
2022-12-23T11:12:43.536Z,9.45
2022-12-23T11:15:29.805Z,8.63
2022-12-23T11:18:12.602Z,8.40
2022-12-23T11:20:44.733Z,10.45
2022-12-23T11:23:29.679Z,12.07
2022-12-23T11:26:19.628Z,13.85
2022-12-23T11:28:52.532Z,16.20
2022-12-23T11:31:28.105Z,16.85
2022-12-23T11:34:00.136Z,17.48
2022-12-23T11:36:28.212Z,21.38
2022-12-23T11:39:10.077Z,21.27
2022-12-23T11:41:47.973Z,25.17
2022-12-23T11:44:33.622Z,26.00
2022-12-23T11:47:22.076Z,26.23
2022-12-23T11:49:54.633Z,26.40
2022-12-23T11:52:23.589Z,31.88
2022-12-23T11:54:55.716Z,29.63
2022-12-23T11:57:37.642Z,30.25
2022-12-23T12:00:06.763Z,33.20
2022-12-23T12:02:40.901Z,41.90
2022-12-23T12:05:22.568Z,44.55
2022-12-23T12:07:50.231Z,48.22
2022-12-23T12:10:22.845Z,47.70
2022-12-23T12:12:55.123Z,46.55
2022-12-23T12:15:39.331Z,48.58
2022-12-23T12:18:07.141Z,47.78
2022-12-23T12:20:40.597Z,47.15
2022-12-23T12:23:22.786Z,46.45
2022-12-23T12:26:00.700Z,50.42
2022-12-23T12:28:41.776Z,48.40
2022-12-23T12:31:23.423Z,50.10
2022-12-23T12:33:52.254Z,62.58
2022-12-23T12:36:39.750Z,63.70
2022-12-23T12:39:16.011Z,62.78
2022-12-23T12:41:53.930Z,62.78
2022-12-23T12:44:27.127Z,59.85
2022-12-23T12:47:36.133Z,59.67
2022-12-23T12:50:10.945Z,54.03
2022-12-23T12:52:40.014Z,51.33
2022-12-23T12:55:13.742Z,50.28
2022-12-23T12:57:40.987Z,51.67
2022-12-23T13:00:19.967Z,49.92
2022-12-23T13:03:01.987Z,47.85
2022-12-23T13:05:56.822Z,46.60
2022-12-23T13:08:44.291Z,46.20
2022-12-23T13:11:28.119Z,45.47
2022-12-23T13:14:05.463Z,47.40
2022-12-23T13:16:54.759Z,45.58
2022-12-23T13:19:45.756Z,45.20
2022-12-23T13:22:33.543Z,45.70
2022-12-23T13:25:22.508Z,46.10
2022-12-23T13:27:56.368Z,43.88
2022-12-23T13:30:24.684Z,43.25
2022-12-23T13:33:08.195Z,41.63
2022-12-23T13:36:06.078Z,42.22
2022-12-23T13:39:07.153Z,41.85
2022-12-23T13:41:39.211Z,43.13
2022-12-23T13:44:07.994Z,45.75
2022-12-23T13:46:59.522Z,42.20
2022-12-23T13:49:44.781Z,42.50
2022-12-23T13:52:48.700Z,44.92
2022-12-23T13:55:33.479Z,41.83
2022-12-23T13:58:10.455Z,45.00
2022-12-23T14:00:37.083Z,42.78
2022-12-23T14:03:12.748Z,45.17
2022-12-23T14:05:41.446Z,43.63
2022-12-23T14:08:17.102Z,43.22
2022-12-23T14:11:16.964Z,45.05
2022-12-23T14:13:49.686Z,43.45
2022-12-23T14:16:35.128Z,43.92
2022-12-23T14:19:24.809Z,39.70
2022-12-23T14:22:39.656Z,40.92
2022-12-23T14:25:27.030Z,40.60
2022-12-23T14:28:02.642Z,38.70
2022-12-23T14:30:37.476Z,39.45
2022-12-23T14:33:23.530Z,35.15
2022-12-23T14:35:53.407Z,36.05
2022-12-23T14:38:25.989Z,34.55
2022-12-23T14:41:01.652Z,34.00
2022-12-23T14:43:46.472Z,32.42
2022-12-23T14:46:36.048Z,31.60
2022-12-23T14:49:36.759Z,32.60
2022-12-23T14:51:51.077Z,33.50
2022-12-23T14:54:18.671Z,31.38
2022-12-23T14:56:57.276Z,31.90
2022-12-23T14:59:23.816Z,28.73
2022-12-23T15:02:03.724Z,29.83
2022-12-23T15:04:48.449Z,31.10
2022-12-23T15:07:37.168Z,32.47
2022-12-23T15:10:25.548Z,29.40
2022-12-23T15:12:55.571Z,25.83
2022-12-23T15:15:23.438Z,27.08
2022-12-23T15:18:10.096Z,25.27
2022-12-23T15:20:36.801Z,23.98
2022-12-23T15:23:14.965Z,23.88
2022-12-23T15:25:44.844Z,23.40
2022-12-23T15:28:17.121Z,22.83
2022-12-23T15:30:54.829Z,23.83
2022-12-23T15:36:10.772Z,24.95
2022-12-23T15:38:38.549Z,24.35
2022-12-23T15:41:13.126Z,22.60
2022-12-23T15:43:43.632Z,23.23
2022-12-23T15:46:16.751Z,23.80
2022-12-23T15:48:43.793Z,20.55
2022-12-23T15:51:30.504Z,21.58
2022-12-23T15:54:05.340Z,21.02
2022-12-23T15:56:35.426Z,22.60
2022-12-23T15:59:03.630Z,20.17
2022-12-23T16:01:38.401Z,23.92
2022-12-23T16:04:05.847Z,24.02
2022-12-23T16:06:34.370Z,27.33
2022-12-23T16:09:02.526Z,30.02
2022-12-23T16:11:38.106Z,34.53
2022-12-23T16:14:37.663Z,38.00
2022-12-23T16:17:07.857Z,42.92
2022-12-23T16:19:45.682Z,42.28
2022-12-23T16:22:34.202Z,44.30
2022-12-23T16:25:17.463Z,44.08
2022-12-23T16:27:48.242Z,64.68
2022-12-23T16:30:14.826Z,53.17
2022-12-23T16:32:54.473Z,67.85
2022-12-23T16:35:25.497Z,61.88
2022-12-23T16:37:52.777Z,62.22
2022-12-23T16:40:19.762Z,59.22
2022-12-23T16:42:46.373Z,60.22
2022-12-23T16:45:13.643Z,56.08
2022-12-23T16:47:41.853Z,58.63
2022-12-23T16:50:12.550Z,57.67
2022-12-23T16:52:39.171Z,60.58
2022-12-23T16:55:17.076Z,59.53
2022-12-23T16:57:44.581Z,59.90
2022-12-23T17:00:16.920Z,62.65
2022-12-23T17:02:47.358Z,62.15
2022-12-23T17:05:18.915Z,68.28
2022-12-23T17:07:45.978Z,57.35
2022-12-23T17:10:13.854Z,58.63
2022-12-23T17:12:41.129Z,57.83
2022-12-23T17:15:10.234Z,59.75
2022-12-23T17:17:36.943Z,60.88
2022-12-23T17:20:03.699Z,56.85
2022-12-23T17:22:32.724Z,57.28
2022-12-23T17:24:59.377Z,55.58
2022-12-23T17:27:26.042Z,55.42
2022-12-23T17:29:52.622Z,54.10
2022-12-23T17:32:19.493Z,52.22
2022-12-23T17:34:46.287Z,62.50
2022-12-23T17:37:14.735Z,65.40
2022-12-23T17:39:42.493Z,63.25
2022-12-23T17:42:25.621Z,58.05
2022-12-23T17:44:52.762Z,53.85
2022-12-23T17:47:21.487Z,53.70
2022-12-23T17:49:48.777Z,52.33
2022-12-23T17:52:20.182Z,46.38
2022-12-23T17:54:48.325Z,51.33
2022-12-23T17:57:19.788Z,45.75
2022-12-23T17:59:47.972Z,47.67
2022-12-23T18:02:35.535Z,45.08
2022-12-23T18:05:03.025Z,50.28
2022-12-23T18:07:29.696Z,55.53
2022-12-23T18:09:56.286Z,55.17
2022-12-23T18:12:32.779Z,53.38
2022-12-23T18:14:59.670Z,53.05
2022-12-23T18:17:26.234Z,48.38
2022-12-23T18:19:53.077Z,48.17
2022-12-23T18:22:21.363Z,43.90
2022-12-23T18:24:55.334Z,41.42
2022-12-23T18:27:25.500Z,42.47
2022-12-23T18:29:52.034Z,43.28
2022-12-23T18:32:26.783Z,41.40
2022-12-23T18:34:55.116Z,43.60
2022-12-23T18:37:22.450Z,41.53
2022-12-23T18:39:49.079Z,37.85
2022-12-23T18:42:17.254Z,40.42
2022-12-23T18:44:48.397Z,37.47
2022-12-23T18:47:15.008Z,34.67
2022-12-23T18:49:41.742Z,33.90
2022-12-23T18:52:12.687Z,31.15
2022-12-23T18:54:40.008Z,30.52
2022-12-23T18:57:07.249Z,33.20
2022-12-23T18:59:37.588Z,33.15
2022-12-23T19:02:04.843Z,31.92
2022-12-23T19:04:31.655Z,31.88
2022-12-23T19:06:58.384Z,30.63
2022-12-23T19:09:25.172Z,35.53
2022-12-23T19:11:53.648Z,31.30
2022-12-23T19:14:20.268Z,31.45
2022-12-23T19:16:51.624Z,32.63
2022-12-23T19:19:19.605Z,30.63
2022-12-23T19:21:46.271Z,33.88
2022-12-23T19:24:12.948Z,31.63
2022-12-23T19:26:39.544Z,35.13
2022-12-23T19:29:06.183Z,30.40
2022-12-23T19:31:34.012Z,33.67
2022-12-23T19:34:00.821Z,30.90
2022-12-23T19:36:27.827Z,31.33
2022-12-23T19:38:56.300Z,31.95
2022-12-23T19:41:22.861Z,31.65
2022-12-23T19:43:49.465Z,31.63
2022-12-23T19:46:17.102Z,30.42
2022-12-23T19:48:43.862Z,31.80
2022-12-23T19:51:12.747Z,32.10
2022-12-23T19:53:40.756Z,30.00
2022-12-23T19:56:08.837Z,28.42
2022-12-23T19:58:37.906Z,30.73
2022-12-23T20:01:16.815Z,26.98
2022-12-23T20:03:44.629Z,28.15
2022-12-23T20:06:15.825Z,27.88
2022-12-23T20:08:43.846Z,28.50
2022-12-23T20:11:14.961Z,27.70
2022-12-23T20:13:41.607Z,26.92
2022-12-23T20:16:08.349Z,25.45
2022-12-23T20:18:35.168Z,26.83
2022-12-23T20:21:01.995Z,24.35
2022-12-23T20:23:29.158Z,24.50
2022-12-23T20:25:55.881Z,22.15
2022-12-23T20:28:22.592Z,23.38
2022-12-23T20:30:53.076Z,23.13
2022-12-23T20:33:19.709Z,23.05
2022-12-23T20:35:46.342Z,24.08
2022-12-23T20:38:12.918Z,23.98
2022-12-23T20:40:39.489Z,22.95
2022-12-23T20:43:10.330Z,21.73
2022-12-23T20:45:42.903Z,20.50
2022-12-23T20:48:10.161Z,20.55
2022-12-23T20:50:40.522Z,21.23
2022-12-23T20:53:07.288Z,18.85
2022-12-23T20:55:33.914Z,20.65
2022-12-23T20:58:23.345Z,20.02
2022-12-23T21:00:50.354Z,19.52
2022-12-23T21:03:17.379Z,21.27
2022-12-23T21:05:43.976Z,20.08
2022-12-23T21:08:10.603Z,18.67
2022-12-23T21:10:37.181Z,18.17
2022-12-23T21:13:03.995Z,19.48
2022-12-23T21:15:33.858Z,20.15
2022-12-23T21:18:00.478Z,17.20
2022-12-23T21:20:27.313Z,18.52
2022-12-23T21:22:53.827Z,17.88
2022-12-23T21:25:20.375Z,16.90
2022-12-23T21:27:46.919Z,17.90
2022-12-23T21:30:13.814Z,17.52
2022-12-23T21:32:40.466Z,16.95
2022-12-23T21:35:07.513Z,16.13
2022-12-23T21:37:34.052Z,16.63
2022-12-23T21:40:00.584Z,16.63
2022-12-23T21:42:27.247Z,16.83
2022-12-23T21:44:53.811Z,15.48
2022-12-23T21:47:20.353Z,16.40
2022-12-23T21:49:46.887Z,15.85
2022-12-23T21:52:13.431Z,15.65
2022-12-23T21:54:39.978Z,16.13
2022-12-23T21:57:06.571Z,14.65
2022-12-23T21:59:35.455Z,15.70
2022-12-23T22:02:02.373Z,16.73
2022-12-23T22:04:29.145Z,15.63
2022-12-23T22:06:55.740Z,16.23
2022-12-23T22:09:22.279Z,14.45
2022-12-23T22:11:49.122Z,15.88
2022-12-23T22:14:17.802Z,15.88
2022-12-23T22:16:44.500Z,17.70
2022-12-23T22:19:11.503Z,14.45
2022-12-23T22:21:39.761Z,14.88
2022-12-23T22:24:07.137Z,14.55
2022-12-23T22:26:34.725Z,14.20
2022-12-23T22:29:05.000Z,14.88
2022-12-23T22:31:40.788Z,15.10
2022-12-23T22:34:08.370Z,14.40
2022-12-23T22:36:35.340Z,15.23
2022-12-23T22:39:02.455Z,14.13
2022-12-23T22:41:30.369Z,15.20
2022-12-23T22:43:57.964Z,13.75
2022-12-23T22:46:25.426Z,16.60
2022-12-23T22:48:52.671Z,15.75
2022-12-23T22:51:22.318Z,15.40
2022-12-23T22:53:48.943Z,13.35
2022-12-23T22:56:17.212Z,13.98
2022-12-23T22:58:43.887Z,13.68
2022-12-23T23:01:19.460Z,13.55
2022-12-23T23:03:46.137Z,13.02
2022-12-23T23:06:12.695Z,13.02
2022-12-23T23:08:41.711Z,15.73
2022-12-23T23:11:08.313Z,11.20
2022-12-23T23:13:35.142Z,12.65
2022-12-23T23:16:02.432Z,12.93
2022-12-23T23:18:30.129Z,11.80
2022-12-23T23:20:56.660Z,13.93
2022-12-23T23:23:23.402Z,12.32
2022-12-23T23:25:50.240Z,12.25
2022-12-23T23:28:17.018Z,11.27
2022-12-23T23:30:43.839Z,12.90
2022-12-23T23:33:11.145Z,12.05
2022-12-23T23:35:37.714Z,12.48
2022-12-23T23:38:04.467Z,12.35
2022-12-23T23:40:31.019Z,11.95
2022-12-23T23:42:57.576Z,12.82
2022-12-23T23:45:24.126Z,12.38
2022-12-23T23:47:51.024Z,13.65
2022-12-23T23:50:17.708Z,10.82
2022-12-23T23:52:44.290Z,14.63
2022-12-23T23:55:11.002Z,10.57
2022-12-23T23:57:37.953Z,11.20
